sensor_id;sensor_type;location;lat;lon;timestamp;P1;durP1;ratioP1;P2;durP2;ratioP2
48534;SDS011;34323;52.022;5.686;2023-04-03T00:01:15;1.85;;;1.08;;
48534;SDS011;34323;52.022;5.686;2023-04-03T00:03:42;2.13;;;1.02;;
48534;SDS011;34323;52.022;5.686;2023-04-03T00:06:08;4.25;;;1.60;;
48534;SDS011;34323;52.022;5.686;2023-04-03T00:08:35;3.10;;;1.25;;
48534;SDS011;34323;52.022;5.686;2023-04-03T00:11:02;2.47;;;1.10;;
48534;SDS011;34323;52.022;5.686;2023-04-03T00:13:28;2.45;;;1.40;;
48534;SDS011;34323;52.022;5.686;2023-04-03T00:15:54;3.95;;;1.42;;
48534;SDS011;34323;52.022;5.686;2023-04-03T00:18:19;3.22;;;1.38;;
48534;SDS011;34323;52.022;5.686;2023-04-03T00:20:45;1.95;;;1.20;;
48534;SDS011;34323;52.022;5.686;2023-04-03T00:23:11;5.28;;;1.23;;
48534;SDS011;34323;52.022;5.686;2023-04-03T00:25:37;1.83;;;1.25;;
48534;SDS011;34323;52.022;5.686;2023-04-03T00:28:03;3.08;;;0.95;;
48534;SDS011;34323;52.022;5.686;2023-04-03T00:30:29;2.88;;;1.52;;
48534;SDS011;34323;52.022;5.686;2023-04-03T00:32:56;1.63;;;1.20;;
48534;SDS011;34323;52.022;5.686;2023-04-03T00:35:22;3.17;;;1.20;;
48534;SDS011;34323;52.022;5.686;2023-04-03T00:37:50;2.70;;;1.42;;
48534;SDS011;34323;52.022;5.686;2023-04-03T00:40:17;2.05;;;0.98;;
48534;SDS011;34323;52.022;5.686;2023-04-03T00:42:43;9.93;;;1.88;;
48534;SDS011;34323;52.022;5.686;2023-04-03T00:47:48;3.65;;;1.67;;
48534;SDS011;34323;52.022;5.686;2023-04-03T00:50:14;2.78;;;1.40;;
48534;SDS011;34323;52.022;5.686;2023-04-03T00:52:40;2.45;;;1.20;;
48534;SDS011;34323;52.022;5.686;2023-04-03T00:55:07;1.85;;;1.02;;
48534;SDS011;34323;52.022;5.686;2023-04-03T00:57:34;2.88;;;1.40;;
48534;SDS011;34323;52.022;5.686;2023-04-03T01:00:05;3.10;;;1.25;;
48534;SDS011;34323;52.022;5.686;2023-04-03T01:02:34;4.55;;;1.63;;
48534;SDS011;34323;52.022;5.686;2023-04-03T01:05:00;6.35;;;1.75;;
48534;SDS011;34323;52.022;5.686;2023-04-03T01:07:26;1.90;;;0.98;;
48534;SDS011;34323;52.022;5.686;2023-04-03T01:09:58;2.47;;;1.45;;
48534;SDS011;34323;52.022;5.686;2023-04-03T01:12:27;2.75;;;1.33;;
48534;SDS011;34323;52.022;5.686;2023-04-03T01:14:56;2.05;;;1.20;;
48534;SDS011;34323;52.022;5.686;2023-04-03T01:17:27;5.18;;;1.65;;
48534;SDS011;34323;52.022;5.686;2023-04-03T01:25:46;3.50;;;1.45;;
48534;SDS011;34323;52.022;5.686;2023-04-03T01:28:17;2.83;;;1.77;;
48534;SDS011;34323;52.022;5.686;2023-04-03T01:31:12;2.03;;;1.13;;
48534;SDS011;34323;52.022;5.686;2023-04-03T01:33:40;4.93;;;1.42;;
48534;SDS011;34323;52.022;5.686;2023-04-03T01:36:06;5.55;;;1.70;;
48534;SDS011;34323;52.022;5.686;2023-04-03T01:38:32;7.18;;;1.55;;
48534;SDS011;34323;52.022;5.686;2023-04-03T01:40:58;1.65;;;1.00;;
48534;SDS011;34323;52.022;5.686;2023-04-03T01:43:23;3.80;;;1.15;;
48534;SDS011;34323;52.022;5.686;2023-04-03T01:45:49;6.70;;;1.60;;
48534;SDS011;34323;52.022;5.686;2023-04-03T01:48:15;4.90;;;1.30;;
48534;SDS011;34323;52.022;5.686;2023-04-03T01:50:41;2.90;;;1.48;;
48534;SDS011;34323;52.022;5.686;2023-04-03T01:53:07;5.47;;;1.38;;
48534;SDS011;34323;52.022;5.686;2023-04-03T01:55:32;5.68;;;2.15;;
48534;SDS011;34323;52.022;5.686;2023-04-03T01:57:58;2.42;;;1.20;;
48534;SDS011;34323;52.022;5.686;2023-04-03T02:00:23;6.72;;;1.30;;
48534;SDS011;34323;52.022;5.686;2023-04-03T02:02:49;2.65;;;1.27;;
48534;SDS011;34323;52.022;5.686;2023-04-03T02:05:15;4.85;;;1.30;;
48534;SDS011;34323;52.022;5.686;2023-04-03T02:07:40;2.75;;;1.55;;
48534;SDS011;34323;52.022;5.686;2023-04-03T02:10:06;2.15;;;1.20;;
48534;SDS011;34323;52.022;5.686;2023-04-03T02:12:32;3.22;;;1.77;;
48534;SDS011;34323;52.022;5.686;2023-04-03T02:14:57;2.22;;;1.42;;
48534;SDS011;34323;52.022;5.686;2023-04-03T02:17:23;2.88;;;1.23;;
48534;SDS011;34323;52.022;5.686;2023-04-03T02:19:48;4.97;;;1.48;;
48534;SDS011;34323;52.022;5.686;2023-04-03T02:22:14;2.80;;;1.38;;
48534;SDS011;34323;52.022;5.686;2023-04-03T02:24:40;4.45;;;1.52;;
48534;SDS011;34323;52.022;5.686;2023-04-03T02:27:06;6.68;;;1.17;;
48534;SDS011;34323;52.022;5.686;2023-04-03T02:29:32;5.68;;;1.33;;
48534;SDS011;34323;52.022;5.686;2023-04-03T02:31:58;4.60;;;1.58;;
48534;SDS011;34323;52.022;5.686;2023-04-03T02:34:23;5.88;;;1.25;;
48534;SDS011;34323;52.022;5.686;2023-04-03T02:36:49;1.85;;;1.27;;
48534;SDS011;34323;52.022;5.686;2023-04-03T02:39:15;7.18;;;1.20;;
48534;SDS011;34323;52.022;5.686;2023-04-03T02:41:41;3.55;;;1.52;;
48534;SDS011;34323;52.022;5.686;2023-04-03T02:44:07;4.60;;;1.50;;
48534;SDS011;34323;52.022;5.686;2023-04-03T02:46:36;2.25;;;1.40;;
48534;SDS011;34323;52.022;5.686;2023-04-03T02:49:02;2.65;;;1.27;;
48534;SDS011;34323;52.022;5.686;2023-04-03T02:51:28;2.20;;;1.20;;
48534;SDS011;34323;52.022;5.686;2023-04-03T02:53:54;3.17;;;1.27;;
48534;SDS011;34323;52.022;5.686;2023-04-03T02:56:20;3.47;;;0.93;;
48534;SDS011;34323;52.022;5.686;2023-04-03T02:58:46;2.97;;;1.40;;
48534;SDS011;34323;52.022;5.686;2023-04-03T03:01:11;2.35;;;1.00;;
48534;SDS011;34323;52.022;5.686;2023-04-03T03:03:38;2.90;;;1.38;;
48534;SDS011;34323;52.022;5.686;2023-04-03T03:06:05;5.28;;;1.50;;
48534;SDS011;34323;52.022;5.686;2023-04-03T03:08:38;3.50;;;1.40;;
48534;SDS011;34323;52.022;5.686;2023-04-03T03:11:05;4.20;;;1.33;;
48534;SDS011;34323;52.022;5.686;2023-04-03T03:13:31;3.65;;;1.33;;
48534;SDS011;34323;52.022;5.686;2023-04-03T03:15:57;2.40;;;1.10;;
48534;SDS011;34323;52.022;5.686;2023-04-03T03:18:23;2.47;;;1.20;;
48534;SDS011;34323;52.022;5.686;2023-04-03T03:20:53;5.30;;;1.40;;
48534;SDS011;34323;52.022;5.686;2023-04-03T03:23:21;2.13;;;1.30;;
48534;SDS011;34323;52.022;5.686;2023-04-03T03:25:47;8.40;;;1.77;;
48534;SDS011;34323;52.022;5.686;2023-04-03T03:28:13;2.67;;;1.45;;
48534;SDS011;34323;52.022;5.686;2023-04-03T03:30:38;3.95;;;1.48;;
48534;SDS011;34323;52.022;5.686;2023-04-03T03:33:04;1.98;;;1.30;;
48534;SDS011;34323;52.022;5.686;2023-04-03T03:35:30;3.38;;;1.48;;
48534;SDS011;34323;52.022;5.686;2023-04-03T03:37:55;7.70;;;2.03;;
48534;SDS011;34323;52.022;5.686;2023-04-03T03:40:21;2.10;;;1.50;;
48534;SDS011;34323;52.022;5.686;2023-04-03T03:42:46;2.72;;;1.40;;
48534;SDS011;34323;52.022;5.686;2023-04-03T03:45:12;2.10;;;1.20;;
48534;SDS011;34323;52.022;5.686;2023-04-03T03:47:38;5.63;;;1.35;;
48534;SDS011;34323;52.022;5.686;2023-04-03T03:50:05;5.07;;;1.77;;
48534;SDS011;34323;52.022;5.686;2023-04-03T03:52:31;2.03;;;1.60;;
48534;SDS011;34323;52.022;5.686;2023-04-03T03:54:56;3.33;;;1.65;;
48534;SDS011;34323;52.022;5.686;2023-04-03T03:57:22;5.68;;;1.50;;
48534;SDS011;34323;52.022;5.686;2023-04-03T03:59:48;1.95;;;1.40;;
48534;SDS011;34323;52.022;5.686;2023-04-03T04:02:13;2.50;;;1.38;;
48534;SDS011;34323;52.022;5.686;2023-04-03T04:04:39;3.83;;;1.70;;
48534;SDS011;34323;52.022;5.686;2023-04-03T04:07:05;2.92;;;1.63;;
48534;SDS011;34323;52.022;5.686;2023-04-03T04:09:31;3.38;;;1.50;;
48534;SDS011;34323;52.022;5.686;2023-04-03T04:11:56;7.15;;;1.88;;
48534;SDS011;34323;52.022;5.686;2023-04-03T04:14:22;2.50;;;1.55;;
48534;SDS011;34323;52.022;5.686;2023-04-03T04:16:47;6.05;;;1.63;;
48534;SDS011;34323;52.022;5.686;2023-04-03T04:19:13;3.92;;;1.80;;
48534;SDS011;34323;52.022;5.686;2023-04-03T04:21:39;4.47;;;2.05;;
48534;SDS011;34323;52.022;5.686;2023-04-03T04:24:06;3.40;;;1.58;;
48534;SDS011;34323;52.022;5.686;2023-04-03T04:26:32;3.70;;;1.50;;
48534;SDS011;34323;52.022;5.686;2023-04-03T04:28:58;6.57;;;1.98;;
48534;SDS011;34323;52.022;5.686;2023-04-03T04:31:24;4.07;;;1.70;;
48534;SDS011;34323;52.022;5.686;2023-04-03T04:33:49;3.85;;;1.73;;
48534;SDS011;34323;52.022;5.686;2023-04-03T04:36:15;5.80;;;2.33;;
48534;SDS011;34323;52.022;5.686;2023-04-03T04:38:41;4.28;;;1.63;;
48534;SDS011;34323;52.022;5.686;2023-04-03T04:41:07;4.72;;;1.95;;
48534;SDS011;34323;52.022;5.686;2023-04-03T04:43:32;3.80;;;2.15;;
48534;SDS011;34323;52.022;5.686;2023-04-03T04:46:05;3.75;;;1.95;;
48534;SDS011;34323;52.022;5.686;2023-04-03T04:48:33;4.28;;;1.73;;
48534;SDS011;34323;52.022;5.686;2023-04-03T04:50:59;4.32;;;2.08;;
48534;SDS011;34323;52.022;5.686;2023-04-03T04:53:25;5.28;;;2.90;;
48534;SDS011;34323;52.022;5.686;2023-04-03T04:55:51;4.45;;;1.63;;
48534;SDS011;34323;52.022;5.686;2023-04-03T04:58:17;6.18;;;1.80;;
48534;SDS011;34323;52.022;5.686;2023-04-03T05:00:43;7.88;;;2.83;;
48534;SDS011;34323;52.022;5.686;2023-04-03T05:03:08;5.68;;;1.95;;
48534;SDS011;34323;52.022;5.686;2023-04-03T05:05:34;7.80;;;2.38;;
48534;SDS011;34323;52.022;5.686;2023-04-03T05:08:00;9.05;;;1.98;;
48534;SDS011;34323;52.022;5.686;2023-04-03T05:10:26;2.70;;;1.67;;
48534;SDS011;34323;52.022;5.686;2023-04-03T05:12:52;4.72;;;1.80;;
48534;SDS011;34323;52.022;5.686;2023-04-03T05:15:17;5.40;;;2.00;;
48534;SDS011;34323;52.022;5.686;2023-04-03T05:17:43;8.00;;;1.67;;
48534;SDS011;34323;52.022;5.686;2023-04-03T05:20:08;2.75;;;1.55;;
48534;SDS011;34323;52.022;5.686;2023-04-03T05:22:34;7.82;;;2.25;;
48534;SDS011;34323;52.022;5.686;2023-04-03T05:25:00;4.43;;;1.50;;
48534;SDS011;34323;52.022;5.686;2023-04-03T05:27:26;7.28;;;2.20;;
48534;SDS011;34323;52.022;5.686;2023-04-03T05:29:53;4.30;;;2.03;;
48534;SDS011;34323;52.022;5.686;2023-04-03T05:32:19;12.95;;;2.17;;
48534;SDS011;34323;52.022;5.686;2023-04-03T05:34:45;3.15;;;2.00;;
48534;SDS011;34323;52.022;5.686;2023-04-03T05:37:10;4.68;;;1.80;;
48534;SDS011;34323;52.022;5.686;2023-04-03T05:39:36;4.22;;;1.85;;
48534;SDS011;34323;52.022;5.686;2023-04-03T05:42:03;6.10;;;1.80;;
48534;SDS011;34323;52.022;5.686;2023-04-03T05:44:29;4.68;;;2.08;;
48534;SDS011;34323;52.022;5.686;2023-04-03T05:46:55;2.35;;;1.83;;
48534;SDS011;34323;52.022;5.686;2023-04-03T05:49:20;4.70;;;1.52;;
48534;SDS011;34323;52.022;5.686;2023-04-03T05:51:46;5.90;;;1.73;;
48534;SDS011;34323;52.022;5.686;2023-04-03T05:54:12;4.88;;;2.13;;
48534;SDS011;34323;52.022;5.686;2023-04-03T05:56:42;7.03;;;2.17;;
48534;SDS011;34323;52.022;5.686;2023-04-03T05:59:08;5.63;;;2.25;;
48534;SDS011;34323;52.022;5.686;2023-04-03T06:01:34;4.75;;;2.35;;
48534;SDS011;34323;52.022;5.686;2023-04-03T06:04:00;5.40;;;1.90;;
48534;SDS011;34323;52.022;5.686;2023-04-03T06:06:25;5.10;;;2.00;;
48534;SDS011;34323;52.022;5.686;2023-04-03T06:09:07;4.38;;;2.05;;
48534;SDS011;34323;52.022;5.686;2023-04-03T06:11:33;3.65;;;1.88;;
48534;SDS011;34323;52.022;5.686;2023-04-03T06:13:58;4.80;;;1.92;;
48534;SDS011;34323;52.022;5.686;2023-04-03T06:16:24;5.55;;;2.15;;
48534;SDS011;34323;52.022;5.686;2023-04-03T06:18:49;10.85;;;2.55;;
48534;SDS011;34323;52.022;5.686;2023-04-03T06:21:15;7.45;;;2.30;;
48534;SDS011;34323;52.022;5.686;2023-04-03T06:23:40;5.82;;;2.45;;
48534;SDS011;34323;52.022;5.686;2023-04-03T06:26:06;5.82;;;2.63;;
48534;SDS011;34323;52.022;5.686;2023-04-03T06:28:32;8.10;;;2.10;;
48534;SDS011;34323;52.022;5.686;2023-04-03T06:30:57;4.03;;;2.00;;
48534;SDS011;34323;52.022;5.686;2023-04-03T06:33:23;5.25;;;2.05;;
48534;SDS011;34323;52.022;5.686;2023-04-03T06:35:49;11.80;;;1.95;;
48534;SDS011;34323;52.022;5.686;2023-04-03T06:38:15;8.65;;;2.35;;
48534;SDS011;34323;52.022;5.686;2023-04-03T06:40:41;5.50;;;2.15;;
48534;SDS011;34323;52.022;5.686;2023-04-03T06:43:06;4.03;;;2.17;;
48534;SDS011;34323;52.022;5.686;2023-04-03T06:45:32;10.55;;;2.03;;
48534;SDS011;34323;52.022;5.686;2023-04-03T06:47:58;6.28;;;2.45;;
48534;SDS011;34323;52.022;5.686;2023-04-03T06:50:23;4.97;;;2.40;;
48534;SDS011;34323;52.022;5.686;2023-04-03T06:52:49;6.10;;;2.35;;
48534;SDS011;34323;52.022;5.686;2023-04-03T06:55:14;9.52;;;2.10;;
48534;SDS011;34323;52.022;5.686;2023-04-03T06:57:40;7.03;;;1.83;;
48534;SDS011;34323;52.022;5.686;2023-04-03T07:00:06;5.53;;;1.92;;
48534;SDS011;34323;52.022;5.686;2023-04-03T07:02:32;4.45;;;1.88;;
48534;SDS011;34323;52.022;5.686;2023-04-03T07:04:58;8.63;;;2.22;;
48534;SDS011;34323;52.022;5.686;2023-04-03T07:07:23;3.83;;;1.80;;
48534;SDS011;34323;52.022;5.686;2023-04-03T07:09:49;11.15;;;2.65;;
48534;SDS011;34323;52.022;5.686;2023-04-03T07:12:14;6.35;;;1.90;;
48534;SDS011;34323;52.022;5.686;2023-04-03T07:14:41;6.80;;;1.92;;
48534;SDS011;34323;52.022;5.686;2023-04-03T07:17:07;5.10;;;1.42;;
48534;SDS011;34323;52.022;5.686;2023-04-03T07:19:33;10.48;;;2.15;;
48534;SDS011;34323;52.022;5.686;2023-04-03T07:21:58;5.22;;;1.70;;
48534;SDS011;34323;52.022;5.686;2023-04-03T07:24:24;4.78;;;1.80;;
48534;SDS011;34323;52.022;5.686;2023-04-03T07:26:50;7.13;;;2.15;;
48534;SDS011;34323;52.022;5.686;2023-04-03T07:29:17;9.30;;;2.03;;
48534;SDS011;34323;52.022;5.686;2023-04-03T07:31:43;3.60;;;1.50;;
48534;SDS011;34323;52.022;5.686;2023-04-03T07:34:09;3.53;;;1.50;;
48534;SDS011;34323;52.022;5.686;2023-04-03T07:36:35;7.15;;;1.20;;
48534;SDS011;34323;52.022;5.686;2023-04-03T07:39:01;6.75;;;1.45;;
48534;SDS011;34323;52.022;5.686;2023-04-03T07:41:27;7.07;;;1.90;;
48534;SDS011;34323;52.022;5.686;2023-04-03T07:43:53;6.07;;;1.95;;
48534;SDS011;34323;52.022;5.686;2023-04-03T07:46:19;3.45;;;1.42;;
48534;SDS011;34323;52.022;5.686;2023-04-03T07:48:45;10.85;;;1.58;;
48534;SDS011;34323;52.022;5.686;2023-04-03T07:51:11;6.28;;;1.63;;
48534;SDS011;34323;52.022;5.686;2023-04-03T07:53:37;5.55;;;1.67;;
48534;SDS011;34323;52.022;5.686;2023-04-03T07:56:03;5.35;;;1.67;;
48534;SDS011;34323;52.022;5.686;2023-04-03T07:58:29;9.02;;;1.67;;
48534;SDS011;34323;52.022;5.686;2023-04-03T08:00:55;3.22;;;1.35;;
48534;SDS011;34323;52.022;5.686;2023-04-03T08:03:21;3.45;;;1.38;;
48534;SDS011;34323;52.022;5.686;2023-04-03T08:05:48;3.40;;;1.40;;
48534;SDS011;34323;52.022;5.686;2023-04-03T08:08:15;2.55;;;1.30;;
48534;SDS011;34323;52.022;5.686;2023-04-03T08:10:42;4.47;;;1.45;;
48534;SDS011;34323;52.022;5.686;2023-04-03T08:13:08;3.83;;;0.95;;
48534;SDS011;34323;52.022;5.686;2023-04-03T08:15:35;7.43;;;1.88;;
48534;SDS011;34323;52.022;5.686;2023-04-03T08:18:01;3.70;;;0.80;;
48534;SDS011;34323;52.022;5.686;2023-04-03T08:20:27;4.15;;;1.20;;
48534;SDS011;34323;52.022;5.686;2023-04-03T08:22:53;4.57;;;1.80;;
48534;SDS011;34323;52.022;5.686;2023-04-03T08:25:18;2.58;;;0.85;;
48534;SDS011;34323;52.022;5.686;2023-04-03T08:27:44;2.95;;;0.98;;
48534;SDS011;34323;52.022;5.686;2023-04-03T08:30:10;1.35;;;0.82;;
48534;SDS011;34323;52.022;5.686;2023-04-03T08:32:36;4.70;;;0.82;;
48534;SDS011;34323;52.022;5.686;2023-04-03T08:35:03;6.90;;;0.70;;
48534;SDS011;34323;52.022;5.686;2023-04-03T08:37:29;2.65;;;0.73;;
48534;SDS011;34323;52.022;5.686;2023-04-03T08:39:55;0.90;;;0.68;;
48534;SDS011;34323;52.022;5.686;2023-04-03T08:42:31;1.48;;;0.52;;
48534;SDS011;34323;52.022;5.686;2023-04-03T08:45:13;5.50;;;0.70;;
48534;SDS011;34323;52.022;5.686;2023-04-03T08:47:46;2.40;;;0.70;;
48534;SDS011;34323;52.022;5.686;2023-04-03T08:50:15;1.42;;;0.50;;
48534;SDS011;34323;52.022;5.686;2023-04-03T08:52:47;2.88;;;0.93;;
48534;SDS011;34323;52.022;5.686;2023-04-03T08:55:23;1.08;;;0.70;;
48534;SDS011;34323;52.022;5.686;2023-04-03T08:58:03;1.75;;;0.70;;
48534;SDS011;34323;52.022;5.686;2023-04-03T09:00:49;1.38;;;0.40;;
48534;SDS011;34323;52.022;5.686;2023-04-03T09:03:18;5.20;;;0.43;;
48534;SDS011;34323;52.022;5.686;2023-04-03T09:05:46;0.65;;;0.32;;
48534;SDS011;34323;52.022;5.686;2023-04-03T09:08:31;1.50;;;0.40;;
48534;SDS011;34323;52.022;5.686;2023-04-03T09:11:06;0.68;;;0.40;;
48534;SDS011;34323;52.022;5.686;2023-04-03T09:13:57;3.08;;;0.65;;
48534;SDS011;34323;52.022;5.686;2023-04-03T09:16:52;0.77;;;0.32;;
48534;SDS011;34323;52.022;5.686;2023-04-03T09:24:58;0.65;;;0.30;;
48534;SDS011;34323;52.022;5.686;2023-04-03T09:27:25;1.35;;;0.52;;
48534;SDS011;34323;52.022;5.686;2023-04-03T09:29:52;3.47;;;0.55;;
48534;SDS011;34323;52.022;5.686;2023-04-03T09:32:29;0.80;;;0.30;;
48534;SDS011;34323;52.022;5.686;2023-04-03T09:35:19;4.68;;;0.55;;
48534;SDS011;34323;52.022;5.686;2023-04-03T09:40:37;0.28;;;0.20;;
48534;SDS011;34323;52.022;5.686;2023-04-03T09:45:43;1.92;;;0.47;;
48534;SDS011;34323;52.022;5.686;2023-04-03T09:50:41;1.00;;;0.32;;
48534;SDS011;34323;52.022;5.686;2023-04-03T09:53:37;1.35;;;0.30;;
48534;SDS011;34323;52.022;5.686;2023-04-03T09:58:38;1.05;;;0.32;;
48534;SDS011;34323;52.022;5.686;2023-04-03T10:01:20;0.25;;;0.10;;
48534;SDS011;34323;52.022;5.686;2023-04-03T10:04:17;1.08;;;0.30;;
48534;SDS011;34323;52.022;5.686;2023-04-03T10:12:04;0.85;;;0.43;;
48534;SDS011;34323;52.022;5.686;2023-04-03T10:14:39;0.45;;;0.20;;
48534;SDS011;34323;52.022;5.686;2023-04-03T10:19:55;1.85;;;0.45;;
48534;SDS011;34323;52.022;5.686;2023-04-03T10:27:44;0.77;;;0.35;;
48534;SDS011;34323;52.022;5.686;2023-04-03T10:33:44;0.65;;;0.30;;
48534;SDS011;34323;52.022;5.686;2023-04-03T10:39:11;1.08;;;0.40;;
48534;SDS011;34323;52.022;5.686;2023-04-03T10:45:08;2.20;;;0.82;;
48534;SDS011;34323;52.022;5.686;2023-04-03T10:47:44;0.93;;;0.40;;
48534;SDS011;34323;52.022;5.686;2023-04-03T10:50:29;2.65;;;0.38;;
48534;SDS011;34323;52.022;5.686;2023-04-03T10:53:09;1.88;;;0.60;;
48534;SDS011;34323;52.022;5.686;2023-04-03T10:56:01;6.50;;;0.47;;
48534;SDS011;34323;52.022;5.686;2023-04-03T10:58:36;4.93;;;0.70;;
48534;SDS011;34323;52.022;5.686;2023-04-03T11:01:09;2.40;;;0.55;;
48534;SDS011;34323;52.022;5.686;2023-04-03T11:03:49;1.13;;;0.40;;
48534;SDS011;34323;52.022;5.686;2023-04-03T11:06:20;2.03;;;0.60;;
48534;SDS011;34323;52.022;5.686;2023-04-03T11:08:50;1.05;;;0.68;;
48534;SDS011;34323;52.022;5.686;2023-04-03T11:11:29;1.10;;;0.32;;
48534;SDS011;34323;52.022;5.686;2023-04-03T11:14:05;3.55;;;1.00;;
48534;SDS011;34323;52.022;5.686;2023-04-03T11:17:41;1.02;;;0.60;;
48534;SDS011;34323;52.022;5.686;2023-04-03T11:22:35;2.05;;;0.68;;
48534;SDS011;34323;52.022;5.686;2023-04-03T11:27:41;0.95;;;0.50;;
48534;SDS011;34323;52.022;5.686;2023-04-03T11:30:20;2.63;;;0.70;;
48534;SDS011;34323;52.022;5.686;2023-04-03T11:35:31;1.20;;;0.50;;
48534;SDS011;34323;52.022;5.686;2023-04-03T11:37:58;2.08;;;0.75;;
48534;SDS011;34323;52.022;5.686;2023-04-03T11:40:30;1.33;;;0.50;;
48534;SDS011;34323;52.022;5.686;2023-04-03T11:50:32;1.02;;;0.43;;
48534;SDS011;34323;52.022;5.686;2023-04-03T12:05:50;1.15;;;0.60;;
48534;SDS011;34323;52.022;5.686;2023-04-03T12:11:34;1.50;;;0.60;;
48534;SDS011;34323;52.022;5.686;2023-04-03T12:14:03;1.25;;;0.73;;
48534;SDS011;34323;52.022;5.686;2023-04-03T12:24:32;4.75;;;0.68;;
48534;SDS011;34323;52.022;5.686;2023-04-03T12:35:47;2.67;;;0.70;;
48534;SDS011;34323;52.022;5.686;2023-04-03T12:46:46;2.33;;;0.98;;
48534;SDS011;34323;52.022;5.686;2023-04-03T12:51:54;1.15;;;0.60;;
48534;SDS011;34323;52.022;5.686;2023-04-03T12:56:52;1.80;;;0.80;;
48534;SDS011;34323;52.022;5.686;2023-04-03T12:59:44;2.00;;;0.77;;
48534;SDS011;34323;52.022;5.686;2023-04-03T13:02:32;2.88;;;0.82;;
48534;SDS011;34323;52.022;5.686;2023-04-03T13:05:04;2.25;;;0.70;;
48534;SDS011;34323;52.022;5.686;2023-04-03T13:07:32;0.88;;;0.57;;
48534;SDS011;34323;52.022;5.686;2023-04-03T13:15:22;3.17;;;0.80;;
48534;SDS011;34323;52.022;5.686;2023-04-03T13:17:48;1.98;;;0.68;;
48534;SDS011;34323;52.022;5.686;2023-04-03T13:20:21;1.35;;;0.60;;
48534;SDS011;34323;52.022;5.686;2023-04-03T13:22:51;1.73;;;0.70;;
48534;SDS011;34323;52.022;5.686;2023-04-03T13:25:27;1.45;;;0.55;;
48534;SDS011;34323;52.022;5.686;2023-04-03T13:27:56;3.78;;;0.73;;
48534;SDS011;34323;52.022;5.686;2023-04-03T13:30:27;3.85;;;1.33;;
48534;SDS011;34323;52.022;5.686;2023-04-03T13:32:55;1.95;;;0.75;;
48534;SDS011;34323;52.022;5.686;2023-04-03T13:35:27;1.52;;;0.60;;
48534;SDS011;34323;52.022;5.686;2023-04-03T13:40:53;2.13;;;0.80;;
48534;SDS011;34323;52.022;5.686;2023-04-03T13:43:22;3.08;;;1.00;;
48534;SDS011;34323;52.022;5.686;2023-04-03T13:45:57;2.97;;;1.15;;
48534;SDS011;34323;52.022;5.686;2023-04-03T13:48:26;2.05;;;0.90;;
48534;SDS011;34323;52.022;5.686;2023-04-03T13:53:41;1.60;;;0.75;;
48534;SDS011;34323;52.022;5.686;2023-04-03T13:56:18;1.88;;;0.90;;
48534;SDS011;34323;52.022;5.686;2023-04-03T13:58:55;2.20;;;0.68;;
48534;SDS011;34323;52.022;5.686;2023-04-03T14:01:24;2.53;;;0.80;;
48534;SDS011;34323;52.022;5.686;2023-04-03T14:06:22;2.50;;;1.25;;
48534;SDS011;34323;52.022;5.686;2023-04-03T14:08:49;1.50;;;0.77;;
48534;SDS011;34323;52.022;5.686;2023-04-03T14:11:20;4.57;;;1.00;;
48534;SDS011;34323;52.022;5.686;2023-04-03T14:13:48;1.48;;;1.00;;
48534;SDS011;34323;52.022;5.686;2023-04-03T14:16:15;2.30;;;0.90;;
48534;SDS011;34323;52.022;5.686;2023-04-03T14:18:45;3.53;;;1.10;;
48534;SDS011;34323;52.022;5.686;2023-04-03T14:21:13;2.53;;;1.05;;
48534;SDS011;34323;52.022;5.686;2023-04-03T14:23:41;3.10;;;0.80;;
48534;SDS011;34323;52.022;5.686;2023-04-03T14:26:11;2.15;;;1.00;;
48534;SDS011;34323;52.022;5.686;2023-04-03T14:28:43;3.05;;;1.02;;
48534;SDS011;34323;52.022;5.686;2023-04-03T14:31:13;3.42;;;0.93;;
48534;SDS011;34323;52.022;5.686;2023-04-03T14:33:41;2.60;;;1.13;;
48534;SDS011;34323;52.022;5.686;2023-04-03T14:36:13;2.95;;;1.00;;
48534;SDS011;34323;52.022;5.686;2023-04-03T14:38:41;3.40;;;1.50;;
48534;SDS011;34323;52.022;5.686;2023-04-03T14:41:09;2.95;;;1.00;;
48534;SDS011;34323;52.022;5.686;2023-04-03T14:43:37;1.80;;;0.77;;
48534;SDS011;34323;52.022;5.686;2023-04-03T14:46:03;3.03;;;1.42;;
48534;SDS011;34323;52.022;5.686;2023-04-03T14:48:30;2.10;;;1.05;;
48534;SDS011;34323;52.022;5.686;2023-04-03T14:50:55;3.40;;;1.17;;
48534;SDS011;34323;52.022;5.686;2023-04-03T14:53:23;2.55;;;0.88;;
48534;SDS011;34323;52.022;5.686;2023-04-03T14:55:50;2.92;;;1.30;;
48534;SDS011;34323;52.022;5.686;2023-04-03T14:58:18;3.95;;;1.10;;
48534;SDS011;34323;52.022;5.686;2023-04-03T15:00:45;1.70;;;0.93;;
48534;SDS011;34323;52.022;5.686;2023-04-03T15:03:18;3.28;;;0.90;;
48534;SDS011;34323;52.022;5.686;2023-04-03T15:05:46;3.58;;;1.08;;
48534;SDS011;34323;52.022;5.686;2023-04-03T15:08:17;3.50;;;1.00;;
48534;SDS011;34323;52.022;5.686;2023-04-03T15:10:51;3.60;;;1.25;;
48534;SDS011;34323;52.022;5.686;2023-04-03T15:13:18;2.45;;;0.75;;
48534;SDS011;34323;52.022;5.686;2023-04-03T15:15:45;3.53;;;0.90;;
48534;SDS011;34323;52.022;5.686;2023-04-03T15:18:15;3.30;;;1.27;;
48534;SDS011;34323;52.022;5.686;2023-04-03T15:20:47;2.88;;;1.13;;
48534;SDS011;34323;52.022;5.686;2023-04-03T15:23:13;3.65;;;1.05;;
48534;SDS011;34323;52.022;5.686;2023-04-03T15:25:41;4.80;;;1.35;;
48534;SDS011;34323;52.022;5.686;2023-04-03T15:28:34;7.10;;;1.20;;
48534;SDS011;34323;52.022;5.686;2023-04-03T15:31:02;2.67;;;1.08;;
48534;SDS011;34323;52.022;5.686;2023-04-03T15:33:28;3.78;;;1.25;;
48534;SDS011;34323;52.022;5.686;2023-04-03T15:35:54;3.10;;;1.10;;
48534;SDS011;34323;52.022;5.686;2023-04-03T15:38:20;3.45;;;1.10;;
48534;SDS011;34323;52.022;5.686;2023-04-03T15:40:46;2.67;;;1.00;;
48534;SDS011;34323;52.022;5.686;2023-04-03T15:43:12;3.85;;;1.38;;
48534;SDS011;34323;52.022;5.686;2023-04-03T15:45:38;2.63;;;1.60;;
48534;SDS011;34323;52.022;5.686;2023-04-03T15:48:03;3.72;;;1.02;;
48534;SDS011;34323;52.022;5.686;2023-04-03T15:50:30;3.88;;;1.45;;
48534;SDS011;34323;52.022;5.686;2023-04-03T15:52:56;2.67;;;0.85;;
48534;SDS011;34323;52.022;5.686;2023-04-03T15:55:26;3.25;;;1.38;;
48534;SDS011;34323;52.022;5.686;2023-04-03T15:57:53;2.95;;;1.08;;
48534;SDS011;34323;52.022;5.686;2023-04-03T16:00:19;4.20;;;1.20;;
48534;SDS011;34323;52.022;5.686;2023-04-03T16:02:45;3.97;;;1.25;;
48534;SDS011;34323;52.022;5.686;2023-04-03T16:05:12;5.32;;;1.58;;
48534;SDS011;34323;52.022;5.686;2023-04-03T16:07:40;3.42;;;1.13;;
48534;SDS011;34323;52.022;5.686;2023-04-03T16:10:06;2.38;;;1.38;;
48534;SDS011;34323;52.022;5.686;2023-04-03T16:12:33;3.17;;;1.40;;
48534;SDS011;34323;52.022;5.686;2023-04-03T16:14:59;5.05;;;1.10;;
48534;SDS011;34323;52.022;5.686;2023-04-03T16:17:25;4.90;;;1.27;;
48534;SDS011;34323;52.022;5.686;2023-04-03T16:19:52;3.30;;;1.20;;
48534;SDS011;34323;52.022;5.686;2023-04-03T16:22:19;4.75;;;1.35;;
48534;SDS011;34323;52.022;5.686;2023-04-03T16:24:45;4.10;;;1.15;;
48534;SDS011;34323;52.022;5.686;2023-04-03T16:27:10;4.18;;;1.25;;
48534;SDS011;34323;52.022;5.686;2023-04-03T16:29:36;3.25;;;1.15;;
48534;SDS011;34323;52.022;5.686;2023-04-03T16:32:02;3.58;;;1.50;;
48534;SDS011;34323;52.022;5.686;2023-04-03T16:34:28;3.33;;;0.95;;
48534;SDS011;34323;52.022;5.686;2023-04-03T16:36:57;4.07;;;1.17;;
48534;SDS011;34323;52.022;5.686;2023-04-03T16:39:22;2.60;;;1.23;;
48534;SDS011;34323;52.022;5.686;2023-04-03T16:41:48;5.32;;;1.15;;
48534;SDS011;34323;52.022;5.686;2023-04-03T16:44:13;4.30;;;1.30;;
48534;SDS011;34323;52.022;5.686;2023-04-03T16:46:39;3.55;;;0.90;;
48534;SDS011;34323;52.022;5.686;2023-04-03T16:49:04;4.85;;;1.08;;
48534;SDS011;34323;52.022;5.686;2023-04-03T16:51:30;5.47;;;1.23;;
48534;SDS011;34323;52.022;5.686;2023-04-03T16:53:57;5.78;;;1.15;;
48534;SDS011;34323;52.022;5.686;2023-04-03T16:56:22;2.45;;;1.00;;
48534;SDS011;34323;52.022;5.686;2023-04-03T16:58:48;4.90;;;1.00;;